createdAt,value
2023-03-26T00:01:33.815Z,68.56
2023-03-26T00:04:01.384Z,68.62
2023-03-26T00:06:36.931Z,68.72
2023-03-26T00:09:05.073Z,68.59
2023-03-26T00:11:32.033Z,68.71
2023-03-26T00:13:59.223Z,68.74
2023-03-26T00:16:29.411Z,68.81
2023-03-26T00:18:57.862Z,68.77
2023-03-26T00:21:30.416Z,68.79
2023-03-26T00:24:09.599Z,68.74
2023-03-26T00:26:38.602Z,68.80
2023-03-26T00:29:07.045Z,68.83
2023-03-26T00:31:35.088Z,68.72
2023-03-26T00:34:04.000Z,68.85
2023-03-26T00:36:31.163Z,68.74
2023-03-26T00:38:58.088Z,68.88
2023-03-26T00:41:27.104Z,68.86
2023-03-26T00:43:57.087Z,68.91
2023-03-26T00:46:26.309Z,68.92
2023-03-26T00:48:54.091Z,68.99
2023-03-26T00:51:22.211Z,68.92
2023-03-26T00:53:50.674Z,68.75
2023-03-26T00:56:18.392Z,68.67
2023-03-26T00:58:46.302Z,68.67
2023-03-26T01:01:17.484Z,68.70
2023-03-26T01:04:00.813Z,68.58
2023-03-26T01:06:37.933Z,68.66
2023-03-26T01:09:16.064Z,68.61
2023-03-26T01:11:44.286Z,68.64
2023-03-26T01:14:24.078Z,68.71
2023-03-26T01:16:57.817Z,68.85
2023-03-26T01:19:45.980Z,68.89
2023-03-26T01:22:25.691Z,69.00
2023-03-26T01:24:54.112Z,69.04
2023-03-26T01:27:27.024Z,68.96
2023-03-26T01:30:16.187Z,68.96
2023-03-26T01:32:54.131Z,69.01
2023-03-26T01:36:10.119Z,69.10
2023-03-26T01:38:46.920Z,69.08
2023-03-26T01:41:20.060Z,69.11
2023-03-26T01:44:12.115Z,69.14
2023-03-26T01:46:40.080Z,69.34
2023-03-26T01:49:13.401Z,69.35
2023-03-26T01:51:42.718Z,69.46
2023-03-26T01:54:17.085Z,69.29
2023-03-26T01:57:32.341Z,69.39
2023-03-26T01:59:59.392Z,69.43
2023-03-26T02:02:41.533Z,69.50
2023-03-26T02:05:22.911Z,69.48
2023-03-26T02:07:58.765Z,69.46
2023-03-26T02:10:39.962Z,69.61
2023-03-26T02:13:07.203Z,69.52
2023-03-26T02:18:51.557Z,69.56
2023-03-26T02:21:21.792Z,69.58
2023-03-26T02:23:58.125Z,69.59
2023-03-26T02:26:25.403Z,69.62
2023-03-26T02:28:56.952Z,69.66
2023-03-26T02:31:27.453Z,69.73
2023-03-26T02:33:55.753Z,69.51
2023-03-26T02:36:27.624Z,69.61
2023-03-26T02:38:58.253Z,69.69
2023-03-26T02:41:25.237Z,69.69
2023-03-26T02:44:06.011Z,69.77
2023-03-26T02:46:53.514Z,69.81
2023-03-26T02:49:36.053Z,69.92
2023-03-26T02:52:06.652Z,69.88
2023-03-26T02:54:35.335Z,69.90
2023-03-26T02:57:12.834Z,69.90
2023-03-26T02:59:42.413Z,69.86
2023-03-26T03:02:29.624Z,69.87
2023-03-26T03:05:01.722Z,69.82
2023-03-26T03:07:32.308Z,69.80
2023-03-26T03:10:02.607Z,69.86
2023-03-26T03:12:59.175Z,69.87
2023-03-26T03:15:27.484Z,69.78
2023-03-26T03:17:54.714Z,69.87
2023-03-26T03:20:22.230Z,69.85
2023-03-26T03:22:49.252Z,69.85
2023-03-26T03:25:17.682Z,69.86
2023-03-26T03:27:45.326Z,69.82
2023-03-26T03:30:14.492Z,69.85
2023-03-26T03:33:02.560Z,69.93
2023-03-26T03:35:30.542Z,69.91
2023-03-26T03:37:59.730Z,69.93
2023-03-26T03:40:27.441Z,69.97
2023-03-26T03:42:54.434Z,69.98
2023-03-26T03:45:29.069Z,69.96
2023-03-26T03:48:13.955Z,69.95
2023-03-26T03:50:43.583Z,70.04
2023-03-26T03:53:26.132Z,70.08
2023-03-26T03:55:56.004Z,70.03
2023-03-26T03:58:28.415Z,69.99
2023-03-26T04:01:03.176Z,69.98
2023-03-26T04:03:48.912Z,70.02
2023-03-26T04:06:19.196Z,69.96
2023-03-26T04:08:50.095Z,70.04
2023-03-26T04:11:17.973Z,70.08
2023-03-26T04:14:17.031Z,70.00
2023-03-26T04:17:06.065Z,70.07
2023-03-26T04:19:34.626Z,70.08
2023-03-26T04:22:03.219Z,69.99
2023-03-26T04:24:34.677Z,70.00
2023-03-26T04:27:27.426Z,69.96
2023-03-26T04:30:00.794Z,69.94
2023-03-26T04:32:34.381Z,70.02
2023-03-26T04:35:04.251Z,70.07
2023-03-26T04:37:35.418Z,70.13
2023-03-26T04:40:30.711Z,70.11
2023-03-26T04:43:20.592Z,70.19
2023-03-26T04:46:04.729Z,70.12
2023-03-26T04:48:38.820Z,70.17
2023-03-26T04:51:07.684Z,70.18
2023-03-26T04:53:36.029Z,70.12
2023-03-26T04:56:23.731Z,70.19
2023-03-26T04:59:08.961Z,70.21
2023-03-26T05:01:40.207Z,70.16
2023-03-26T05:04:08.443Z,70.13
2023-03-26T05:06:38.232Z,70.09
2023-03-26T05:09:10.831Z,70.10
2023-03-26T05:12:03.978Z,70.15
2023-03-26T05:14:39.070Z,70.15
2023-03-26T05:17:10.879Z,70.19
2023-03-26T05:19:39.151Z,70.12
2023-03-26T05:22:06.245Z,70.18
2023-03-26T05:24:34.088Z,70.13
2023-03-26T05:27:01.351Z,70.12
2023-03-26T05:29:28.235Z,70.21
2023-03-26T05:31:55.512Z,70.12
2023-03-26T05:34:26.515Z,70.12
2023-03-26T05:36:53.929Z,70.05
2023-03-26T05:39:33.771Z,70.15
2023-03-26T05:42:19.602Z,70.24
2023-03-26T05:45:01.879Z,70.26
2023-03-26T05:47:29.165Z,70.18
2023-03-26T05:49:56.397Z,70.30
2023-03-26T05:52:23.505Z,70.24
2023-03-26T05:55:09.370Z,70.12
2023-03-26T05:58:03.043Z,70.19
2023-03-26T06:00:48.987Z,70.20
2023-03-26T06:03:19.118Z,70.16
2023-03-26T06:06:15.711Z,70.14
2023-03-26T06:09:00.969Z,70.16
2023-03-26T06:11:32.242Z,70.07
2023-03-26T06:14:00.420Z,70.07
2023-03-26T06:16:28.208Z,70.00
2023-03-26T06:19:18.576Z,70.19
2023-03-26T06:21:51.704Z,70.14
2023-03-26T06:24:38.817Z,70.00
2023-03-26T06:27:39.513Z,70.10
2023-03-26T06:30:24.996Z,70.02
2023-03-26T06:33:04.858Z,70.07
2023-03-26T06:35:38.051Z,70.18
2023-03-26T06:38:07.444Z,70.15
2023-03-26T06:40:34.834Z,70.06
2023-03-26T06:43:22.007Z,69.91
2023-03-26T06:46:23.642Z,69.88
2023-03-26T06:48:53.677Z,69.73
2023-03-26T06:51:40.943Z,69.50
2023-03-26T06:54:27.730Z,69.50
2023-03-26T06:57:00.543Z,69.44
2023-03-26T06:59:50.457Z,69.36
2023-03-26T07:02:37.670Z,69.31
2023-03-26T07:05:23.301Z,69.15
2023-03-26T07:08:19.534Z,69.29
2023-03-26T07:11:05.521Z,69.21
2023-03-26T07:14:04.771Z,69.15
2023-03-26T07:17:01.276Z,69.16
2023-03-26T07:19:52.869Z,69.20
2023-03-26T07:22:25.101Z,69.27
2023-03-26T07:25:04.624Z,69.16
2023-03-26T07:28:16.521Z,69.14
2023-03-26T07:31:44.742Z,69.22
2023-03-26T07:34:52.985Z,69.12
2023-03-26T07:38:01.300Z,69.27
2023-03-26T07:41:17.929Z,69.55
2023-03-26T07:44:28.373Z,69.67
2023-03-26T07:47:22.404Z,69.89
2023-03-26T07:50:22.592Z,70.34
2023-03-26T07:53:10.213Z,70.67
2023-03-26T07:56:20.942Z,70.36
2023-03-26T08:06:54.496Z,69.71
2023-03-26T08:10:02.451Z,69.84
2023-03-26T08:12:45.603Z,69.54
2023-03-26T08:15:41.780Z,68.55
2023-03-26T08:18:33.668Z,67.78
2023-03-26T08:21:23.028Z,67.61
2023-03-26T08:24:02.166Z,67.80
2023-03-26T08:26:41.607Z,67.86
2023-03-26T08:29:21.032Z,67.90
2023-03-26T08:31:49.683Z,68.19
2023-03-26T08:34:16.731Z,68.03
2023-03-26T08:36:43.664Z,68.07
2023-03-26T08:39:10.803Z,68.09
2023-03-26T08:41:56.730Z,68.03
2023-03-26T08:44:47.889Z,68.10
2023-03-26T08:47:44.281Z,68.11
2023-03-26T08:50:26.344Z,68.00
2023-03-26T08:53:31.509Z,68.20
2023-03-26T08:56:17.846Z,68.89
2023-03-26T08:58:57.507Z,68.32
2023-03-26T09:01:43.119Z,67.72
2023-03-26T09:04:32.333Z,67.33
2023-03-26T09:07:07.145Z,67.58
2023-03-26T09:09:58.447Z,67.51
2023-03-26T09:12:34.415Z,67.74
2023-03-26T09:15:07.440Z,67.80
2023-03-26T09:17:52.842Z,68.26
2023-03-26T09:20:44.072Z,68.07
2023-03-26T09:23:49.829Z,68.11
2023-03-26T09:26:28.360Z,67.88
2023-03-26T09:29:33.953Z,67.66
2023-03-26T09:32:17.425Z,67.22
2023-03-26T09:34:56.802Z,67.35
2023-03-26T09:37:23.889Z,67.18
2023-03-26T09:40:15.587Z,67.02
2023-03-26T09:42:49.894Z,66.53
2023-03-26T09:45:27.316Z,66.39
2023-03-26T09:48:42.409Z,66.07
2023-03-26T09:51:33.791Z,66.13
2023-03-26T09:54:17.822Z,66.63
2023-03-26T09:57:15.132Z,67.03
2023-03-26T09:59:57.595Z,67.54
2023-03-26T10:03:06.033Z,67.58
2023-03-26T10:05:51.234Z,68.66
2023-03-26T10:08:32.551Z,68.84
2023-03-26T10:11:33.558Z,67.57
2023-03-26T10:14:37.463Z,66.82
2023-03-26T10:17:10.956Z,66.12
2023-03-26T10:19:49.571Z,65.66
2023-03-26T10:22:36.272Z,65.50
2023-03-26T10:25:40.161Z,65.79
2023-03-26T10:28:20.621Z,65.60
2023-03-26T10:30:50.969Z,65.83
2023-03-26T10:33:49.622Z,65.74
2023-03-26T10:36:29.971Z,65.85
2023-03-26T10:39:37.079Z,65.97
2023-03-26T10:42:21.696Z,67.09
2023-03-26T10:45:17.897Z,67.20
2023-03-26T10:48:06.722Z,66.65
2023-03-26T10:51:13.222Z,65.82
2023-03-26T10:53:47.442Z,65.68
2023-03-26T10:56:28.708Z,65.62
2023-03-26T10:58:57.357Z,64.93
2023-03-26T11:01:55.160Z,65.82
2023-03-26T11:04:52.291Z,67.63
2023-03-26T11:07:39.405Z,68.06
2023-03-26T11:10:21.584Z,67.89
2023-03-26T11:12:59.411Z,66.33
2023-03-26T11:15:39.619Z,64.38
2023-03-26T11:18:23.081Z,64.08
2023-03-26T11:21:19.185Z,64.30
2023-03-26T11:24:04.539Z,64.19
2023-03-26T11:27:14.681Z,63.84
2023-03-26T11:30:03.460Z,63.68
2023-03-26T11:32:44.425Z,63.95
2023-03-26T11:35:41.060Z,64.32
2023-03-26T11:38:23.873Z,65.19
2023-03-26T11:40:55.425Z,65.50
2023-03-26T11:43:50.617Z,65.72
2023-03-26T11:46:20.989Z,65.19
2023-03-26T11:48:57.752Z,64.97
2023-03-26T11:51:33.768Z,64.33
2023-03-26T11:54:01.626Z,64.40
2023-03-26T11:56:37.857Z,64.38
2023-03-26T11:59:24.549Z,63.92
2023-03-26T12:01:59.065Z,64.21
2023-03-26T12:04:31.785Z,64.51
2023-03-26T12:07:09.508Z,64.51
2023-03-26T12:09:36.569Z,64.33
2023-03-26T12:12:06.309Z,64.41
2023-03-26T12:14:36.036Z,64.33
2023-03-26T12:17:12.356Z,64.07
2023-03-26T12:19:42.271Z,64.56
2023-03-26T12:22:29.837Z,65.41
2023-03-26T12:25:16.830Z,65.79
2023-03-26T12:28:09.023Z,65.01
2023-03-26T12:30:38.857Z,64.41
2023-03-26T12:33:27.216Z,63.80
2023-03-26T12:35:58.175Z,63.48
2023-03-26T12:38:35.792Z,63.50
2023-03-26T12:42:25.811Z,63.89
2023-03-26T12:44:46.408Z,64.16
2023-03-26T12:48:00.036Z,64.19
2023-03-26T12:50:15.895Z,63.96
2023-03-26T12:53:02.790Z,63.85
2023-03-26T12:55:32.507Z,63.55
2023-03-26T12:58:21.345Z,63.70
2023-03-26T13:00:55.565Z,64.07
2023-03-26T13:03:57.023Z,64.50
2023-03-26T13:07:00.082Z,64.43
2023-03-26T13:09:40.742Z,64.31
2023-03-26T13:12:17.618Z,64.05
2023-03-26T13:15:06.267Z,63.84
2023-03-26T13:17:57.905Z,63.62
2023-03-26T13:20:53.391Z,63.26
2023-03-26T13:24:02.328Z,63.58
2023-03-26T13:26:53.714Z,63.66
2023-03-26T13:29:20.651Z,63.05
2023-03-26T13:32:08.391Z,62.65
2023-03-26T13:35:04.389Z,62.53
2023-03-26T13:37:41.266Z,62.71
2023-03-26T13:40:25.064Z,62.55
2023-03-26T13:43:14.236Z,62.45
2023-03-26T13:46:02.355Z,62.29
2023-03-26T13:48:53.091Z,62.43
2023-03-26T13:51:41.525Z,62.78
2023-03-26T13:54:17.582Z,63.96
2023-03-26T13:56:52.954Z,64.78
2023-03-26T13:59:31.249Z,64.72
2023-03-26T14:02:06.622Z,64.73
2023-03-26T14:04:45.006Z,64.40
2023-03-26T14:07:19.326Z,64.11
2023-03-26T14:10:02.432Z,64.06
2023-03-26T14:12:49.132Z,63.73
2023-03-26T14:15:46.908Z,63.36
2023-03-26T14:18:42.792Z,63.19
2023-03-26T14:21:39.435Z,63.22
2023-03-26T14:24:21.621Z,63.12
2023-03-26T14:26:54.833Z,62.63
2023-03-26T14:29:36.913Z,62.23
2023-03-26T14:32:32.530Z,62.38
2023-03-26T14:35:17.475Z,62.78
2023-03-26T14:38:00.400Z,62.57
2023-03-26T14:40:48.216Z,62.14
2023-03-26T14:43:24.175Z,62.03
2023-03-26T14:46:22.281Z,62.54
2023-03-26T14:49:07.927Z,62.87
2023-03-26T14:51:46.836Z,62.84
2023-03-26T14:54:19.414Z,62.63
2023-03-26T14:56:47.172Z,62.44
2023-03-26T14:59:32.661Z,62.83
2023-03-26T15:02:45.133Z,63.16
2023-03-26T15:05:18.047Z,63.44
2023-03-26T15:07:51.741Z,62.70
2023-03-26T15:10:43.836Z,62.47
2023-03-26T15:13:35.884Z,62.15
2023-03-26T15:16:08.628Z,62.34
2023-03-26T15:19:03.762Z,62.39
2023-03-26T15:21:43.621Z,62.21
2023-03-26T15:24:29.587Z,62.33
2023-03-26T15:27:24.913Z,62.57
2023-03-26T15:30:00.947Z,62.64
2023-03-26T15:33:18.854Z,62.44
2023-03-26T15:36:33.803Z,62.45
2023-03-26T15:40:00.050Z,62.69
2023-03-26T15:42:38.273Z,62.46
2023-03-26T15:45:31.372Z,62.77
2023-03-26T15:48:13.716Z,63.16
2023-03-26T15:50:54.327Z,62.45
2023-03-26T15:53:24.450Z,62.41
2023-03-26T15:55:57.434Z,62.41
2023-03-26T15:58:43.208Z,62.45
2023-03-26T16:01:38.341Z,62.11
2023-03-26T16:04:35.294Z,62.35
2023-03-26T16:07:11.409Z,62.48
2023-03-26T16:09:48.581Z,62.28
2023-03-26T16:12:30.475Z,62.25
2023-03-26T16:15:07.560Z,61.89
2023-03-26T16:18:08.393Z,62.02
2023-03-26T16:20:51.085Z,61.80
2023-03-26T16:23:30.233Z,61.76
2023-03-26T16:26:08.046Z,61.75
2023-03-26T16:28:48.375Z,61.87
2023-03-26T16:31:36.893Z,61.54
2023-03-26T16:34:04.994Z,61.28
2023-03-26T16:36:36.757Z,61.43
2023-03-26T16:39:07.808Z,61.36
2023-03-26T16:41:50.436Z,61.46
2023-03-26T16:44:52.022Z,61.56
2023-03-26T16:47:42.778Z,61.47
2023-03-26T16:50:31.393Z,61.59
2023-03-26T16:53:13.641Z,61.61
2023-03-26T16:55:52.110Z,61.84
2023-03-26T16:58:43.975Z,61.86
2023-03-26T17:01:32.681Z,61.92
2023-03-26T17:04:02.794Z,61.81
2023-03-26T17:07:04.438Z,62.05
2023-03-26T17:09:34.541Z,61.95
2023-03-26T17:12:24.176Z,62.00
2023-03-26T17:14:56.716Z,62.23
2023-03-26T17:17:52.024Z,62.09
2023-03-26T17:20:21.980Z,61.95
2023-03-26T17:22:57.068Z,62.07
2023-03-26T17:25:37.039Z,62.34
2023-03-26T17:28:25.338Z,62.35
2023-03-26T17:31:11.148Z,62.30
2023-03-26T17:33:39.567Z,62.54
2023-03-26T17:36:12.831Z,62.65
2023-03-26T17:38:39.642Z,62.65
2023-03-26T17:41:08.781Z,62.56
2023-03-26T17:43:39.161Z,62.56
2023-03-26T17:46:36.529Z,62.60
2023-03-26T17:49:07.276Z,62.71
2023-03-26T17:51:59.183Z,62.54
2023-03-26T17:54:41.822Z,62.61
2023-03-26T17:57:42.197Z,62.59
2023-03-26T18:00:23.643Z,62.72
2023-03-26T18:02:56.524Z,62.79
2023-03-26T18:05:29.250Z,62.72
2023-03-26T18:08:25.748Z,62.89
2023-03-26T18:11:04.698Z,62.84
2023-03-26T18:13:37.596Z,63.03
2023-03-26T18:16:41.422Z,63.06
2023-03-26T18:19:22.281Z,62.98
2023-03-26T18:21:57.125Z,63.04
2023-03-26T18:24:36.836Z,63.00
2023-03-26T18:27:12.594Z,62.99
2023-03-26T18:29:45.223Z,63.12
2023-03-26T18:32:12.355Z,63.33
2023-03-26T18:34:46.734Z,63.22
2023-03-26T18:37:16.641Z,63.12
2023-03-26T18:40:24.333Z,63.20
2023-03-26T18:42:53.733Z,63.20
2023-03-26T18:45:23.556Z,63.21
2023-03-26T18:47:57.318Z,63.35
2023-03-26T18:50:31.190Z,63.17
2023-03-26T18:53:00.663Z,63.08
2023-03-26T18:55:29.624Z,62.95
2023-03-26T18:57:57.445Z,62.92
2023-03-26T19:00:28.044Z,63.18
2023-03-26T19:03:04.144Z,63.28
2023-03-26T19:05:34.613Z,63.24
2023-03-26T19:08:03.892Z,63.34
2023-03-26T19:10:33.194Z,63.30
2023-03-26T19:13:04.516Z,63.40
2023-03-26T19:15:34.886Z,63.51
2023-03-26T19:18:10.039Z,63.50
2023-03-26T19:20:44.104Z,63.49
2023-03-26T19:23:18.030Z,63.54
2023-03-26T19:25:49.051Z,63.63
2023-03-26T19:28:19.683Z,63.51
2023-03-26T19:30:47.423Z,63.52
2023-03-26T19:33:23.537Z,63.52
2023-03-26T19:36:14.533Z,63.62
2023-03-26T19:38:53.327Z,63.80
2023-03-26T19:41:44.975Z,63.82
2023-03-26T19:44:34.048Z,63.74
2023-03-26T19:47:08.390Z,63.76
2023-03-26T19:49:56.765Z,63.75
2023-03-26T19:52:42.218Z,63.76
2023-03-26T19:55:10.524Z,63.90
2023-03-26T19:57:38.215Z,63.98
2023-03-26T20:00:14.049Z,63.78
2023-03-26T20:02:42.743Z,63.76
2023-03-26T20:05:23.267Z,63.88
2023-03-26T20:07:51.532Z,63.91
2023-03-26T20:10:19.153Z,64.02
2023-03-26T20:12:46.166Z,64.16
2023-03-26T20:15:26.056Z,64.14
2023-03-26T20:17:54.900Z,64.30
2023-03-26T20:20:27.436Z,64.45
2023-03-26T20:22:55.196Z,64.36
2023-03-26T20:25:34.548Z,64.34
2023-03-26T20:28:02.157Z,64.34
2023-03-26T20:33:12.752Z,64.39
2023-03-26T20:35:41.550Z,64.59
2023-03-26T20:38:10.050Z,64.60
2023-03-26T20:40:39.638Z,64.74
2023-03-26T20:43:12.396Z,64.81
2023-03-26T20:45:40.262Z,64.82
2023-03-26T20:48:09.491Z,64.78
2023-03-26T20:50:41.584Z,64.74
2023-03-26T20:53:20.737Z,64.93
2023-03-26T20:55:49.817Z,65.02
2023-03-26T20:58:31.960Z,65.08
2023-03-26T21:01:01.424Z,65.27
2023-03-26T21:03:28.894Z,65.33
2023-03-26T21:06:01.523Z,65.33
2023-03-26T21:08:35.627Z,65.48
2023-03-26T21:11:05.000Z,65.36
2023-03-26T21:13:38.178Z,65.41
2023-03-26T21:16:06.648Z,65.58
2023-03-26T21:18:34.489Z,65.51
2023-03-26T21:21:25.627Z,65.57
2023-03-26T21:24:00.651Z,65.68
2023-03-26T21:26:34.966Z,65.72
2023-03-26T21:29:09.398Z,65.79
2023-03-26T21:31:38.248Z,65.87
2023-03-26T21:34:06.074Z,65.87
2023-03-26T21:36:33.563Z,65.97
2023-03-26T21:39:01.460Z,65.94
2023-03-26T21:42:05.103Z,65.94
2023-03-26T21:44:34.367Z,65.96
2023-03-26T21:47:02.174Z,66.05
2023-03-26T21:49:30.065Z,66.03
2023-03-26T21:51:57.615Z,66.05
2023-03-26T21:54:29.594Z,66.13
2023-03-26T21:57:14.076Z,66.13
2023-03-26T22:00:40.816Z,66.23
2023-03-26T22:03:13.801Z,66.33
2023-03-26T22:06:11.770Z,66.27
2023-03-26T22:08:41.754Z,66.21
2023-03-26T22:11:12.396Z,66.14
2023-03-26T22:13:39.328Z,66.21
2023-03-26T22:16:09.047Z,66.24
2023-03-26T22:18:36.766Z,66.33
2023-03-26T22:21:04.788Z,66.46
2023-03-26T22:23:37.634Z,66.50
2023-03-26T22:26:06.199Z,66.54
2023-03-26T22:28:33.410Z,66.62
2023-03-26T22:31:07.383Z,66.58
2023-03-26T22:33:36.317Z,66.56
2023-03-26T22:36:03.577Z,66.50
2023-03-26T22:38:30.995Z,66.58
2023-03-26T22:40:58.235Z,66.63
2023-03-26T22:43:26.346Z,66.55
2023-03-26T22:45:54.877Z,66.69
2023-03-26T22:48:23.808Z,66.74
2023-03-26T22:51:02.027Z,66.74
2023-03-26T22:53:29.880Z,66.73
2023-03-26T22:55:56.831Z,66.70
2023-03-26T22:58:24.191Z,66.65
2023-03-26T23:00:54.686Z,66.69
2023-03-26T23:03:35.306Z,66.82
2023-03-26T23:06:08.552Z,66.82
2023-03-26T23:08:37.553Z,66.86
2023-03-26T23:11:13.427Z,66.87
2023-03-26T23:13:41.926Z,66.94
2023-03-26T23:16:10.463Z,66.78
2023-03-26T23:18:38.273Z,66.94
2023-03-26T23:21:12.025Z,66.80
2023-03-26T23:23:39.925Z,66.86
2023-03-26T23:26:07.534Z,66.90
2023-03-26T23:28:35.859Z,66.96
2023-03-26T23:31:05.672Z,67.01
2023-03-26T23:33:35.358Z,66.97
2023-03-26T23:36:09.248Z,67.02
2023-03-26T23:38:43.018Z,67.13
2023-03-26T23:41:21.863Z,67.12
2023-03-26T23:43:56.601Z,67.14
2023-03-26T23:46:34.871Z,67.28
2023-03-26T23:49:05.149Z,67.24
2023-03-26T23:51:32.882Z,67.30
2023-03-26T23:54:03.026Z,67.35
2023-03-26T23:56:30.403Z,67.20
2023-03-26T23:59:01.738Z,67.22
